createdAt,value
2022-07-29T00:02:27.341Z,2.08
2022-07-29T00:05:10.267Z,1.98
2022-07-29T00:07:49.107Z,2.20
2022-07-29T00:10:31.120Z,1.88
2022-07-29T00:13:32.148Z,1.70
2022-07-29T00:16:56.608Z,2.00
2022-07-29T00:19:45.778Z,1.80
2022-07-29T00:22:34.383Z,1.80
2022-07-29T00:25:02.280Z,2.20
2022-07-29T00:27:30.202Z,2.20
2022-07-29T00:29:58.123Z,1.98
2022-07-29T00:32:40.098Z,1.98
2022-07-29T00:35:26.938Z,2.22
2022-07-29T00:37:56.543Z,2.00
2022-07-29T00:40:39.922Z,2.10
2022-07-29T00:43:20.303Z,2.08
2022-07-29T00:45:59.328Z,1.98
2022-07-29T00:48:50.156Z,2.15
2022-07-29T00:51:34.324Z,2.05
2022-07-29T00:54:39.865Z,2.10
2022-07-29T00:57:28.833Z,1.80
2022-07-29T01:02:51.775Z,2.03
2022-07-29T01:05:51.200Z,2.30
2022-07-29T01:08:56.923Z,2.17
2022-07-29T01:11:37.038Z,2.10
2022-07-29T01:17:19.093Z,2.30
2022-07-29T01:23:29.752Z,2.60
2022-07-29T01:26:10.974Z,2.25
2022-07-29T01:28:51.393Z,2.25
2022-07-29T01:31:32.497Z,2.17
2022-07-29T01:37:55.876Z,2.25
2022-07-29T01:41:01.933Z,2.40
2022-07-29T01:44:03.080Z,2.70
2022-07-29T01:46:42.588Z,2.42
2022-07-29T01:49:22.981Z,2.42
2022-07-29T01:51:56.547Z,2.40
2022-07-29T01:54:32.400Z,2.10
2022-07-29T01:57:02.289Z,2.08
2022-07-29T01:59:38.048Z,2.38
2022-07-29T02:02:09.271Z,2.40
2022-07-29T02:04:38.807Z,2.20
2022-07-29T02:07:10.139Z,2.78
2022-07-29T02:09:43.856Z,2.78
2022-07-29T02:12:17.651Z,2.33
2022-07-29T02:14:58.244Z,2.08
2022-07-29T02:17:38.862Z,2.38
2022-07-29T02:20:28.638Z,2.60
2022-07-29T02:23:01.999Z,2.33
2022-07-29T02:25:44.277Z,2.50
2022-07-29T02:28:37.050Z,2.40
2022-07-29T02:31:09.916Z,2.67
2022-07-29T02:33:52.454Z,2.42
2022-07-29T02:36:25.741Z,2.55
2022-07-29T02:38:58.600Z,2.60
2022-07-29T02:41:31.272Z,2.25
2022-07-29T02:44:03.663Z,2.20
2022-07-29T02:46:34.716Z,2.63
2022-07-29T02:49:11.036Z,2.25
2022-07-29T02:51:45.186Z,2.40
2022-07-29T02:54:21.900Z,2.45
2022-07-29T02:56:55.262Z,2.53
2022-07-29T02:59:28.337Z,2.30
2022-07-29T03:02:02.362Z,2.53
2022-07-29T03:04:39.031Z,2.40
2022-07-29T03:07:09.775Z,2.47
2022-07-29T03:09:45.713Z,2.40
2022-07-29T03:12:25.921Z,2.50
2022-07-29T03:15:02.369Z,2.15
2022-07-29T03:17:53.717Z,2.20
2022-07-29T03:20:27.307Z,2.35
2022-07-29T03:23:01.769Z,2.30
2022-07-29T03:25:31.982Z,2.35
2022-07-29T03:28:03.736Z,2.30
2022-07-29T03:30:45.674Z,2.80
2022-07-29T03:33:20.504Z,2.50
2022-07-29T03:35:53.129Z,2.40
2022-07-29T03:38:30.551Z,2.58
2022-07-29T03:41:12.337Z,2.38
2022-07-29T03:43:49.323Z,2.58
2022-07-29T03:46:23.271Z,2.47
2022-07-29T03:49:04.045Z,2.58
2022-07-29T03:51:34.071Z,2.45
2022-07-29T03:54:09.295Z,2.72
2022-07-29T03:56:42.186Z,2.42
2022-07-29T03:59:19.100Z,2.45
2022-07-29T04:01:49.950Z,2.38
2022-07-29T04:04:20.354Z,2.55
2022-07-29T04:06:48.621Z,2.65
2022-07-29T04:09:18.077Z,2.38
2022-07-29T04:12:01.735Z,2.78
2022-07-29T04:14:32.494Z,2.50
2022-07-29T04:17:00.328Z,2.92
2022-07-29T04:19:29.698Z,2.55
2022-07-29T04:21:57.630Z,2.15
2022-07-29T04:24:26.484Z,2.60
2022-07-29T04:27:04.369Z,2.30
2022-07-29T04:29:32.177Z,2.22
2022-07-29T04:31:59.980Z,2.40
2022-07-29T04:34:31.451Z,2.67
2022-07-29T04:37:02.538Z,2.15
2022-07-29T04:39:30.600Z,2.47
2022-07-29T04:41:58.559Z,2.63
2022-07-29T04:44:28.698Z,2.53
2022-07-29T04:46:58.527Z,2.42
2022-07-29T04:49:26.906Z,2.20
2022-07-29T04:51:57.972Z,2.28
2022-07-29T04:54:25.904Z,2.38
2022-07-29T04:56:54.307Z,2.20
2022-07-29T04:59:22.194Z,2.00
2022-07-29T05:01:50.744Z,2.25
2022-07-29T05:04:20.465Z,1.92
2022-07-29T05:06:49.648Z,2.10
2022-07-29T05:09:32.811Z,2.05
2022-07-29T05:12:01.142Z,1.90
2022-07-29T05:14:29.353Z,2.25
2022-07-29T05:16:58.250Z,2.10
2022-07-29T05:19:28.943Z,1.98
2022-07-29T05:24:52.200Z,2.00
2022-07-29T05:27:27.169Z,1.98
2022-07-29T05:30:32.366Z,2.25
2022-07-29T05:33:36.229Z,2.05
2022-07-29T05:36:29.970Z,2.30
2022-07-29T05:46:25.168Z,2.13
2022-07-29T06:39:25.361Z,2.08
2022-07-29T06:41:53.841Z,1.90
2022-07-29T06:48:16.526Z,2.28
2022-07-29T06:50:46.874Z,2.33
2022-07-29T06:53:18.242Z,2.00
2022-07-29T06:55:50.209Z,1.92
2022-07-29T06:58:21.315Z,1.88
2022-07-29T07:00:57.749Z,2.08
2022-07-29T07:03:26.269Z,1.67
2022-07-29T07:05:55.200Z,1.80
2022-07-29T07:08:24.637Z,2.47
2022-07-29T07:10:56.111Z,2.20
2022-07-29T07:49:28.889Z,1.80
2022-07-29T07:51:59.919Z,2.45
2022-07-29T07:54:28.095Z,2.00
2022-07-29T07:56:57.703Z,1.88
2022-07-29T07:59:26.098Z,1.75
2022-07-29T08:01:55.786Z,1.95
2022-07-29T08:04:39.981Z,2.20
2022-07-29T08:11:34.787Z,2.03
2022-07-29T08:20:15.289Z,1.70
2022-07-29T08:22:43.042Z,1.77
2022-07-29T08:25:11.019Z,2.00
2022-07-29T08:27:44.100Z,2.10
2022-07-29T08:30:12.681Z,1.75
2022-07-29T08:32:53.880Z,2.05
2022-07-29T08:35:25.500Z,1.58
2022-07-29T08:37:54.000Z,1.77
2022-07-29T08:40:31.838Z,1.85
2022-07-29T08:43:01.141Z,1.80
2022-07-29T08:45:31.374Z,1.60
2022-07-29T08:47:59.356Z,1.95
2022-07-29T08:50:28.696Z,1.70
2022-07-29T08:52:59.847Z,1.85
2022-07-29T08:55:28.675Z,2.08
2022-07-29T08:57:57.988Z,1.98
2022-07-29T09:00:28.502Z,2.00
2022-07-29T09:03:00.079Z,1.80
2022-07-29T09:05:30.578Z,1.85
2022-07-29T09:07:58.562Z,1.83
2022-07-29T09:10:26.390Z,1.70
2022-07-29T09:12:54.385Z,1.80
2022-07-29T09:15:22.645Z,1.58
2022-07-29T09:17:51.430Z,1.77
2022-07-29T09:20:21.045Z,1.67
2022-07-29T09:22:51.780Z,2.00
2022-07-29T09:25:34.187Z,1.80
2022-07-29T09:28:08.005Z,1.85
2022-07-29T09:30:35.885Z,1.85
2022-07-29T09:33:05.370Z,1.55
2022-07-29T09:35:33.335Z,1.83
2022-07-29T09:38:12.361Z,2.00
2022-07-29T09:40:40.766Z,1.60
2022-07-29T09:43:12.501Z,1.80
2022-07-29T09:45:40.794Z,1.75
2022-07-29T09:48:19.718Z,1.77
2022-07-29T09:50:50.482Z,1.77
2022-07-29T09:53:33.891Z,1.70
2022-07-29T09:56:02.111Z,2.10
2022-07-29T09:58:30.186Z,1.60
2022-07-29T10:00:58.667Z,1.88
2022-07-29T10:03:26.837Z,1.98
2022-07-29T10:06:09.224Z,1.83
2022-07-29T10:08:38.869Z,1.60
2022-07-29T10:11:12.086Z,1.60
2022-07-29T10:13:40.567Z,1.60
2022-07-29T10:16:09.167Z,1.60
2022-07-29T10:18:37.482Z,1.85
2022-07-29T10:21:05.525Z,1.80
2022-07-29T10:23:46.254Z,1.50
2022-07-29T10:26:18.100Z,1.85
2022-07-29T10:28:46.418Z,1.80
2022-07-29T10:31:22.681Z,1.67
2022-07-29T10:34:04.886Z,1.80
2022-07-29T10:36:51.170Z,1.80
2022-07-29T10:39:44.478Z,1.60
2022-07-29T10:42:29.647Z,2.00
2022-07-29T10:45:05.749Z,1.95
2022-07-29T10:47:35.402Z,1.90
2022-07-29T10:50:05.891Z,1.77
2022-07-29T10:52:55.374Z,1.63
2022-07-29T10:55:34.150Z,2.08
2022-07-29T10:58:16.107Z,2.13
2022-07-29T11:00:47.799Z,2.00
2022-07-29T11:07:08.984Z,2.00
2022-07-29T11:09:38.414Z,2.05
2022-07-29T11:12:27.014Z,1.73
2022-07-29T11:15:01.406Z,1.73
2022-07-29T11:17:47.275Z,1.98
2022-07-29T11:20:34.052Z,2.30
2022-07-29T11:23:02.513Z,1.77
2022-07-29T11:25:50.073Z,2.35
2022-07-29T11:28:25.293Z,1.88
2022-07-29T11:30:56.078Z,2.08
2022-07-29T11:33:54.830Z,2.15
2022-07-29T11:36:28.027Z,2.30
2022-07-29T11:39:36.687Z,1.90
2022-07-29T11:42:41.988Z,2.58
2022-07-29T11:45:43.003Z,2.15
2022-07-29T11:50:54.989Z,2.20
2022-07-29T11:53:22.972Z,2.13
2022-07-29T11:55:58.119Z,2.15
2022-07-29T11:58:27.031Z,2.30
2022-07-29T12:00:56.254Z,2.67
2022-07-29T12:06:17.928Z,2.50
2022-07-29T12:08:46.835Z,2.20
2022-07-29T12:11:20.519Z,2.30
2022-07-29T12:13:49.610Z,2.25
2022-07-29T12:16:25.897Z,2.22
2022-07-29T12:19:02.981Z,2.58
2022-07-29T12:21:31.387Z,2.45
2022-07-29T12:24:05.784Z,2.65
2022-07-29T12:26:37.159Z,2.45
2022-07-29T12:29:11.374Z,2.70
2022-07-29T12:31:43.567Z,2.35
2022-07-29T12:34:16.625Z,2.33
2022-07-29T12:36:44.818Z,2.20
2022-07-29T12:39:13.305Z,2.33
2022-07-29T12:41:41.147Z,2.75
2022-07-29T12:44:09.048Z,2.40
2022-07-29T12:46:37.227Z,2.55
2022-07-29T12:49:05.489Z,2.58
2022-07-29T12:56:20.737Z,2.28
2022-07-29T12:58:53.750Z,2.30
2022-07-29T13:01:22.202Z,2.70
2022-07-29T13:03:57.522Z,2.45
2022-07-29T13:06:42.187Z,2.50
2022-07-29T13:09:18.955Z,2.72
2022-07-29T13:11:51.344Z,2.13
2022-07-29T13:15:11.974Z,2.08
2022-07-29T13:17:56.145Z,2.13
2022-07-29T13:20:34.270Z,2.10
2022-07-29T13:27:32.941Z,2.35
2022-07-29T13:33:01.132Z,2.45
2022-07-29T13:36:15.660Z,2.53
2022-07-29T13:42:10.667Z,2.28
2022-07-29T13:44:52.873Z,2.35
2022-07-29T13:47:49.432Z,2.00
2022-07-29T13:50:17.751Z,2.20
2022-07-29T13:53:47.417Z,2.20
2022-07-29T13:56:55.885Z,2.75
2022-07-29T14:00:14.750Z,2.28
2022-07-29T14:02:44.208Z,2.50
2022-07-29T14:05:13.152Z,2.55
2022-07-29T14:08:10.805Z,2.25
2022-07-29T14:15:49.935Z,2.10
2022-07-29T14:18:34.233Z,2.70
2022-07-29T14:21:49.676Z,2.90
2022-07-29T14:25:38.441Z,2.08
2022-07-29T14:32:26.459Z,2.60
2022-07-29T14:37:42.857Z,2.22
2022-07-29T14:49:49.412Z,2.28
2022-07-29T14:52:18.957Z,2.33
2022-07-29T14:56:15.331Z,2.45
2022-07-29T14:59:35.440Z,2.30
2022-07-29T15:25:44.278Z,2.28
2022-07-29T15:28:12.587Z,2.33
2022-07-29T15:30:42.170Z,2.90
2022-07-29T15:33:10.962Z,2.60
2022-07-29T15:35:40.559Z,2.70
2022-07-29T15:44:22.715Z,2.15
2022-07-29T15:47:08.084Z,2.60
2022-07-29T15:49:48.699Z,2.33
2022-07-29T16:05:43.370Z,2.60
2022-07-29T16:08:11.118Z,2.40
2022-07-29T16:10:38.911Z,2.85
2022-07-29T16:13:06.659Z,2.85
2022-07-29T16:15:34.716Z,2.70
2022-07-29T16:18:02.516Z,3.05
2022-07-29T16:20:30.911Z,2.50
2022-07-29T16:23:00.034Z,2.63
2022-07-29T16:25:50.199Z,2.53
2022-07-29T16:28:15.756Z,2.63
2022-07-29T16:30:43.677Z,2.78
2022-07-29T16:33:11.436Z,2.65
2022-07-29T16:35:40.434Z,2.47
2022-07-29T16:59:43.463Z,2.20
2022-07-29T17:02:11.976Z,2.30
2022-07-29T17:04:41.189Z,2.10
2022-07-29T17:07:08.978Z,2.30
2022-07-29T17:09:36.736Z,2.72
2022-07-29T17:12:04.896Z,2.53
2022-07-29T17:14:38.466Z,2.10
2022-07-29T17:17:13.468Z,2.22
2022-07-29T17:19:44.724Z,2.30
2022-07-29T17:22:18.723Z,2.20
2022-07-29T17:24:47.399Z,2.03
2022-07-29T17:27:15.296Z,2.17
2022-07-29T17:29:43.313Z,2.33
2022-07-29T17:32:11.703Z,2.22
2022-07-29T17:34:40.633Z,2.45
2022-07-29T17:37:11.699Z,2.20
2022-07-29T17:39:41.170Z,2.40
2022-07-29T17:42:09.325Z,2.45
2022-07-29T17:44:37.173Z,2.60
2022-07-29T17:47:05.379Z,2.60
2022-07-29T17:49:36.305Z,2.17
2022-07-29T17:52:05.836Z,2.78
2022-07-29T17:54:34.947Z,2.67
2022-07-29T17:57:02.733Z,3.00
2022-07-29T17:59:30.492Z,2.90
2022-07-29T18:01:58.754Z,2.67
2022-07-29T18:04:26.574Z,2.60
2022-07-29T18:06:54.457Z,2.95
2022-07-29T18:09:22.162Z,2.85
2022-07-29T18:11:51.636Z,2.80
2022-07-29T18:14:19.446Z,2.75
2022-07-29T18:16:47.206Z,2.67
2022-07-29T18:19:16.003Z,2.78
2022-07-29T18:21:51.996Z,2.40
2022-07-29T18:24:25.151Z,2.65
2022-07-29T18:26:54.473Z,2.78
2022-07-29T18:29:22.417Z,2.55
2022-07-29T18:31:50.546Z,2.85
2022-07-29T18:34:18.335Z,2.47
2022-07-29T18:36:46.603Z,2.45
2022-07-29T18:39:20.000Z,2.58
2022-07-29T18:41:50.697Z,2.30
2022-07-29T18:44:21.684Z,2.88
2022-07-29T18:46:50.009Z,2.47
2022-07-29T18:49:17.862Z,2.92
2022-07-29T18:51:45.635Z,2.72
2022-07-29T18:54:13.435Z,2.60
2022-07-29T18:56:41.196Z,2.20
2022-07-29T18:59:09.118Z,2.50
2022-07-29T19:01:38.864Z,2.20
2022-07-29T19:04:06.686Z,2.60
2022-07-29T19:06:34.536Z,2.58
2022-07-29T19:09:02.519Z,2.47
2022-07-29T19:11:30.296Z,2.58
2022-07-29T19:13:58.430Z,2.50
2022-07-29T19:16:26.452Z,2.42
2022-07-29T19:18:56.088Z,2.40
2022-07-29T19:21:25.407Z,2.30
2022-07-29T19:24:06.462Z,2.80
2022-07-29T19:26:36.348Z,2.28
2022-07-29T19:29:04.928Z,2.25
2022-07-29T19:31:32.939Z,2.45
2022-07-29T19:34:02.159Z,2.20
2022-07-29T19:36:31.180Z,2.33
2022-07-29T19:38:59.894Z,2.42
2022-07-29T19:41:27.771Z,2.38
2022-07-29T19:43:55.623Z,2.40
2022-07-29T19:46:24.338Z,2.80
2022-07-29T19:48:52.909Z,2.60
2022-07-29T19:51:22.434Z,2.35
2022-07-29T19:53:50.382Z,2.33
2022-07-29T19:56:18.219Z,2.67
2022-07-29T19:58:47.166Z,2.47
2022-07-29T20:01:16.547Z,2.55
2022-07-29T20:03:44.667Z,2.58
2022-07-29T20:06:12.591Z,2.50
2022-07-29T20:08:41.663Z,2.42
2022-07-29T20:11:09.429Z,2.35
2022-07-29T20:13:37.275Z,2.42
2022-07-29T20:16:08.017Z,2.38
2022-07-29T20:18:36.119Z,2.30
2022-07-29T20:21:04.653Z,2.63
2022-07-29T20:23:33.378Z,2.80
2022-07-29T20:26:05.110Z,2.70
2022-07-29T20:28:35.247Z,2.55
2022-07-29T20:31:03.010Z,2.45
2022-07-29T20:33:30.806Z,2.30
2022-07-29T20:35:58.560Z,2.75
2022-07-29T20:38:26.283Z,2.40
2022-07-29T20:40:58.407Z,3.03
2022-07-29T20:43:27.658Z,2.40
2022-07-29T20:45:55.503Z,3.13
2022-07-29T20:48:23.300Z,2.70
2022-07-29T20:50:51.454Z,2.90
2022-07-29T20:53:20.326Z,2.85
2022-07-29T20:55:48.337Z,2.50
2022-07-29T20:58:16.074Z,2.55
2022-07-29T21:00:45.263Z,3.17
2022-07-29T21:03:13.011Z,2.65
2022-07-29T21:05:43.810Z,2.65
2022-07-29T21:08:12.299Z,2.88
2022-07-29T21:10:40.294Z,2.78
2022-07-29T21:13:08.151Z,2.60
2022-07-29T21:15:36.146Z,2.60
2022-07-29T21:18:09.162Z,2.80
2022-07-29T21:20:36.920Z,3.03
2022-07-29T21:23:04.726Z,2.88
2022-07-29T21:25:34.251Z,2.63
2022-07-29T21:28:19.834Z,2.47
2022-07-29T21:30:47.610Z,2.65
2022-07-29T21:33:16.924Z,2.75
2022-07-29T21:35:58.964Z,2.58
2022-07-29T21:38:33.292Z,2.35
2022-07-29T21:41:01.513Z,3.03
2022-07-29T21:43:29.757Z,2.75
2022-07-29T21:45:58.037Z,2.90
2022-07-29T21:48:29.594Z,2.83
2022-07-29T21:50:57.642Z,2.70
2022-07-29T21:53:27.749Z,2.40
2022-07-29T21:55:55.666Z,3.10
2022-07-29T21:58:24.551Z,2.65
2022-07-29T22:00:53.819Z,2.92
2022-07-29T22:03:21.862Z,2.92
2022-07-29T22:05:50.943Z,2.60
2022-07-29T22:08:20.981Z,2.53
2022-07-29T22:10:48.728Z,2.67
2022-07-29T22:13:16.565Z,2.67
2022-07-29T22:15:47.180Z,2.88
2022-07-29T22:18:21.105Z,2.88
2022-07-29T22:20:50.963Z,2.90
2022-07-29T22:23:18.820Z,2.67
2022-07-29T22:25:46.655Z,2.67
2022-07-29T22:28:14.420Z,2.50
2022-07-29T22:30:42.252Z,2.78
2022-07-29T22:33:16.841Z,3.13
2022-07-29T22:35:48.586Z,2.65
2022-07-29T22:38:18.466Z,2.35
2022-07-29T22:40:46.859Z,2.78
2022-07-29T22:43:16.539Z,3.05
2022-07-29T22:45:44.331Z,2.78
2022-07-29T22:48:12.178Z,2.50
2022-07-29T22:50:40.007Z,2.63
2022-07-29T22:53:07.988Z,2.75
2022-07-29T22:55:37.346Z,2.70
2022-07-29T22:58:05.352Z,2.97
2022-07-29T23:00:33.672Z,2.50
2022-07-29T23:03:01.522Z,3.17
2022-07-29T23:05:29.279Z,3.05
2022-07-29T23:07:57.138Z,2.60
2022-07-29T23:10:24.901Z,2.55
2022-07-29T23:12:54.018Z,2.67
2022-07-29T23:15:22.098Z,2.80
2022-07-29T23:17:49.822Z,2.50
2022-07-29T23:20:17.698Z,3.25
2022-07-29T23:22:45.585Z,2.50
2022-07-29T23:25:13.409Z,2.40
2022-07-29T23:27:41.463Z,2.72
2022-07-29T23:30:11.679Z,2.63
2022-07-29T23:32:42.515Z,2.70
2022-07-29T23:35:23.048Z,3.00
2022-07-29T23:37:54.914Z,3.00
2022-07-29T23:40:34.545Z,2.70
2022-07-29T23:43:08.568Z,3.10
2022-07-29T23:45:59.182Z,3.10
2022-07-29T23:48:29.080Z,2.90
2022-07-29T23:50:58.502Z,3.10
2022-07-29T23:53:26.596Z,2.70
2022-07-29T23:55:57.006Z,2.90
2022-07-29T23:58:41.979Z,3.17
